createdAt,value
2022-09-10T00:00:21.467Z,84.55
2022-09-10T00:04:02.794Z,84.46
2022-09-10T00:07:39.182Z,84.25
2022-09-10T00:11:37.905Z,84.11
2022-09-10T00:14:59.937Z,83.68
2022-09-10T00:18:56.771Z,83.78
2022-09-10T00:22:37.813Z,84.12
2022-09-10T00:26:00.283Z,84.25
2022-09-10T00:29:55.299Z,84.08
2022-09-10T00:33:19.052Z,83.47
2022-09-10T00:36:54.663Z,83.52
2022-09-10T00:40:49.632Z,84.26
2022-09-10T00:44:36.820Z,84.49
2022-09-10T00:48:23.806Z,84.79
2022-09-10T00:51:47.812Z,84.88
2022-09-10T00:55:23.470Z,84.98
2022-09-10T00:58:59.842Z,85.08
2022-09-10T01:02:55.730Z,85.05
2022-09-10T01:06:18.496Z,85.47
2022-09-10T01:10:21.376Z,86.07
2022-09-10T01:14:11.586Z,86.46
2022-09-10T01:18:08.202Z,87.17
2022-09-10T01:22:21.482Z,87.64
2022-09-10T01:25:57.314Z,87.18
2022-09-10T01:30:05.435Z,87.30
2022-09-10T01:33:56.683Z,87.33
2022-09-10T01:37:25.973Z,87.31
2022-09-10T01:40:56.072Z,87.30
2022-09-10T01:44:46.342Z,87.37
2022-09-10T01:48:32.366Z,87.06
2022-09-10T01:52:38.970Z,86.65
2022-09-10T01:56:34.907Z,86.82
2022-09-10T02:00:10.199Z,86.70
2022-09-10T02:03:39.451Z,86.78
2022-09-10T02:07:35.035Z,86.86
2022-09-10T02:11:17.270Z,86.82
2022-09-10T02:14:43.642Z,86.45
2022-09-10T02:18:21.307Z,86.35
2022-09-10T02:22:15.505Z,86.60
2022-09-10T02:25:37.560Z,87.15
2022-09-10T02:29:16.149Z,87.02
2022-09-10T02:33:11.432Z,87.15
2022-09-10T02:36:34.006Z,87.01
2022-09-10T02:40:11.667Z,86.85
2022-09-10T02:43:46.832Z,86.93
2022-09-10T02:47:23.664Z,87.14
2022-09-10T02:51:00.797Z,87.20
2022-09-10T02:54:56.093Z,87.33
2022-09-10T02:58:18.241Z,87.23
2022-09-10T03:01:54.702Z,87.50
2022-09-10T03:05:31.429Z,87.30
2022-09-10T03:09:28.249Z,87.18
2022-09-10T03:13:09.442Z,87.62
2022-09-10T03:16:31.824Z,87.57
2022-09-10T03:20:27.196Z,87.73
2022-09-10T03:23:50.731Z,88.04
2022-09-10T03:27:26.325Z,87.98
2022-09-10T03:31:02.214Z,88.09
2022-09-10T03:34:59.379Z,88.14
2022-09-10T03:38:22.379Z,88.19
2022-09-10T03:41:58.601Z,87.87
2022-09-10T03:45:34.482Z,87.79
2022-09-10T03:49:30.168Z,88.17
2022-09-10T03:52:53.704Z,87.99
2022-09-10T03:56:29.977Z,88.10
2022-09-10T04:00:26.451Z,88.43
2022-09-10T04:04:10.105Z,88.54
2022-09-10T04:07:50.922Z,88.56
2022-09-10T04:11:33.122Z,88.34
2022-09-10T04:14:55.402Z,88.37
2022-09-10T04:18:34.672Z,88.59
2022-09-10T04:22:08.629Z,88.60
2022-09-10T04:26:13.980Z,88.54
2022-09-10T04:29:38.165Z,88.71
2022-09-10T04:33:32.805Z,88.59
2022-09-10T04:36:54.750Z,88.35
2022-09-10T04:40:31.912Z,88.25
2022-09-10T04:44:09.137Z,88.06
2022-09-10T04:47:46.955Z,88.23
2022-09-10T04:51:21.905Z,88.06
2022-09-10T04:54:59.785Z,88.74
2022-09-10T04:58:38.880Z,88.77
2022-09-10T05:02:32.763Z,88.93
2022-09-10T05:05:55.221Z,88.91
2022-09-10T05:09:31.597Z,89.11
2022-09-10T05:13:08.770Z,89.03
2022-09-10T05:16:46.390Z,89.00
2022-09-10T05:20:22.117Z,89.06
2022-09-10T05:23:58.800Z,89.07
2022-09-10T05:27:35.478Z,88.75
2022-09-10T05:31:12.885Z,88.57
2022-09-10T05:34:48.640Z,88.44
2022-09-10T05:38:26.369Z,88.58
2022-09-10T05:42:21.487Z,88.61
2022-09-10T05:46:03.692Z,88.72
2022-09-10T05:49:27.622Z,88.66
2022-09-10T05:53:02.813Z,88.31
2022-09-10T05:56:40.268Z,87.86
2022-09-10T06:00:35.887Z,87.97
2022-09-10T06:04:18.472Z,88.60
2022-09-10T06:07:41.115Z,88.57
2022-09-10T06:11:18.101Z,88.15
2022-09-10T06:14:54.791Z,88.12
2022-09-10T06:18:32.034Z,88.16
2022-09-10T06:22:11.112Z,88.24
2022-09-10T06:25:45.058Z,88.06
2022-09-10T06:29:22.675Z,88.06
2022-09-10T06:33:18.965Z,88.15
2022-09-10T06:36:41.521Z,88.36
2022-09-10T06:40:18.713Z,88.40
2022-09-10T06:43:54.442Z,87.90
2022-09-10T06:48:12.795Z,87.66
2022-09-10T06:51:16.840Z,87.49
2022-09-10T06:55:12.351Z,87.64
2022-09-10T06:58:41.880Z,87.72
2022-09-10T07:02:37.235Z,87.94
2022-09-10T07:06:10.671Z,88.05
2022-09-10T07:09:40.475Z,87.96
2022-09-10T07:13:14.634Z,87.94
2022-09-10T07:16:51.469Z,87.92
2022-09-10T07:20:46.903Z,88.18
2022-09-10T07:24:14.587Z,88.26
2022-09-10T07:27:56.104Z,88.44
2022-09-10T07:31:51.750Z,88.29
2022-09-10T07:35:17.364Z,88.61
2022-09-10T07:38:57.975Z,88.89
2022-09-10T07:42:50.087Z,88.99
2022-09-10T07:46:31.124Z,89.08
2022-09-10T07:49:53.396Z,89.56
2022-09-10T07:53:31.064Z,89.85
2022-09-10T07:57:06.813Z,90.14
2022-09-10T08:00:43.639Z,90.14
2022-09-10T08:04:39.458Z,89.99
2022-09-10T08:08:03.846Z,89.92
2022-09-10T08:11:41.328Z,90.03
2022-09-10T08:15:18.181Z,90.05
2022-09-10T08:18:57.241Z,89.97
2022-09-10T08:22:32.258Z,89.95
2022-09-10T08:26:08.981Z,89.92
2022-09-10T08:29:44.934Z,90.06
2022-09-10T08:33:21.923Z,89.62
2022-09-10T08:36:59.614Z,89.81
2022-09-10T08:40:35.282Z,90.16
2022-09-10T08:44:28.657Z,89.99
2022-09-10T08:48:17.718Z,89.92
2022-09-10T08:52:00.184Z,89.96
2022-09-10T08:55:22.654Z,89.74
2022-09-10T08:59:17.231Z,89.65
2022-09-10T09:03:03.217Z,89.66
2022-09-10T09:06:52.040Z,89.76
2022-09-10T09:10:49.074Z,89.94
2022-09-10T09:14:50.844Z,90.03
2022-09-10T09:18:41.940Z,89.86
2022-09-10T09:22:45.165Z,89.65
2022-09-10T09:26:13.973Z,89.77
2022-09-10T09:29:56.557Z,89.84
2022-09-10T09:33:25.084Z,89.93
2022-09-10T09:37:03.314Z,89.58
2022-09-10T09:40:54.716Z,89.47
2022-09-10T09:44:36.636Z,89.29
2022-09-10T09:47:59.875Z,89.31
2022-09-10T09:51:55.187Z,89.24
2022-09-10T09:55:43.064Z,89.31
2022-09-10T09:59:27.489Z,88.81
2022-09-10T10:02:52.709Z,88.72
2022-09-10T10:06:32.777Z,88.27
2022-09-10T10:10:25.494Z,87.90
2022-09-10T10:13:51.644Z,87.83
2022-09-10T10:17:41.654Z,87.48
2022-09-10T10:21:13.435Z,86.32
2022-09-10T10:24:42.544Z,86.43
2022-09-10T10:28:27.494Z,86.40
2022-09-10T10:31:56.318Z,85.91
2022-09-10T10:35:53.853Z,85.36
2022-09-10T10:40:01.432Z,85.18
2022-09-10T10:43:59.357Z,84.98
2022-09-10T10:47:39.845Z,85.27
2022-09-10T10:51:34.425Z,85.34
2022-09-10T10:55:21.078Z,84.85
2022-09-10T10:59:16.694Z,84.44
2022-09-10T11:02:51.359Z,84.43
2022-09-10T11:06:42.987Z,84.31
2022-09-10T11:10:27.200Z,83.75
2022-09-10T11:13:56.662Z,83.99
2022-09-10T11:18:16.940Z,83.77
2022-09-10T11:22:01.191Z,83.66
2022-09-10T11:26:07.081Z,82.69
2022-09-10T11:29:49.988Z,82.15
2022-09-10T11:33:57.538Z,81.28
2022-09-10T11:38:03.095Z,80.68
2022-09-10T11:41:30.120Z,81.31
2022-09-10T11:45:25.350Z,80.38
2022-09-10T11:49:23.031Z,78.93
2022-09-10T11:52:46.045Z,77.28
2022-09-10T11:56:46.829Z,74.86
2022-09-10T12:00:19.697Z,73.44
2022-09-10T12:04:11.230Z,73.89
2022-09-10T12:07:55.557Z,74.05
2022-09-10T12:11:40.122Z,72.60
2022-09-10T12:15:25.127Z,72.91
2022-09-10T12:19:16.133Z,72.28
2022-09-10T12:22:40.501Z,72.33
2022-09-10T12:26:19.888Z,72.41
2022-09-10T12:30:32.704Z,71.77
2022-09-10T12:33:54.504Z,71.94
2022-09-10T12:37:31.238Z,72.57
2022-09-10T12:41:21.109Z,72.62
2022-09-10T12:44:46.634Z,72.48
2022-09-10T12:48:26.835Z,71.93
2022-09-10T12:52:00.095Z,71.81
2022-09-10T12:56:15.747Z,71.63
2022-09-10T12:59:58.447Z,71.35
2022-09-10T13:03:54.008Z,71.44
2022-09-10T13:07:41.043Z,70.75
2022-09-10T13:11:21.026Z,71.66
2022-09-10T13:14:48.797Z,71.71
2022-09-10T13:18:23.749Z,71.57
2022-09-10T13:22:52.990Z,71.58
2022-09-10T13:26:39.490Z,71.32
2022-09-10T13:30:22.498Z,70.96
2022-09-10T13:33:49.594Z,70.91
2022-09-10T13:37:33.721Z,70.22
2022-09-10T13:41:52.924Z,68.74
2022-09-10T13:45:40.659Z,68.49
2022-09-10T13:49:23.098Z,68.42
2022-09-10T13:52:49.376Z,67.91
2022-09-10T13:56:43.137Z,68.16
2022-09-10T14:00:09.236Z,67.86
2022-09-10T14:03:41.946Z,67.90
2022-09-10T14:07:25.436Z,67.33
2022-09-10T14:11:34.223Z,66.60
2022-09-10T14:15:00.285Z,65.93
2022-09-10T14:18:44.162Z,64.81
2022-09-10T14:22:31.205Z,63.74
2022-09-10T14:26:10.130Z,62.23
2022-09-10T14:29:32.927Z,60.79
2022-09-10T14:33:23.300Z,59.40
2022-09-10T14:36:46.447Z,60.62
2022-09-10T14:40:23.451Z,60.53
2022-09-10T14:44:21.621Z,59.58
2022-09-10T14:47:52.261Z,59.89
2022-09-10T14:51:25.616Z,59.77
2022-09-10T14:54:56.742Z,59.36
2022-09-10T14:59:10.852Z,58.97
2022-09-10T15:02:32.742Z,57.30
2022-09-10T15:06:28.296Z,57.90
2022-09-10T15:09:53.549Z,58.98
2022-09-10T15:13:26.656Z,59.58
2022-09-10T15:17:03.769Z,60.04
2022-09-10T15:21:01.370Z,60.46
2022-09-10T15:24:24.326Z,61.42
2022-09-10T15:27:59.676Z,61.78
2022-09-10T15:31:58.819Z,62.38
2022-09-10T15:35:25.361Z,62.84
2022-09-10T15:38:59.765Z,63.40
2022-09-10T15:42:37.231Z,63.64
2022-09-10T15:46:13.477Z,64.10
2022-09-10T15:50:09.367Z,64.52
2022-09-10T15:53:51.834Z,65.07
2022-09-10T15:57:13.350Z,65.74
2022-09-10T16:01:12.037Z,66.48
2022-09-10T16:04:35.922Z,67.49
2022-09-10T16:08:29.720Z,67.97
2022-09-10T16:11:51.757Z,68.32
2022-09-10T16:15:28.628Z,68.63
2022-09-10T16:19:24.357Z,69.36
2022-09-10T16:22:46.013Z,69.89
2022-09-10T16:26:42.987Z,70.67
2022-09-10T16:30:06.035Z,71.15
2022-09-10T16:33:43.115Z,71.59
2022-09-10T16:37:18.920Z,71.81
2022-09-10T16:41:02.178Z,71.90
2022-09-10T16:44:32.352Z,71.93
2022-09-10T16:48:27.757Z,72.57
2022-09-10T16:51:49.632Z,72.82
2022-09-10T16:55:45.211Z,73.29
2022-09-10T16:59:09.804Z,73.91
2022-09-10T17:02:43.964Z,74.19
2022-09-10T17:06:24.715Z,74.16
2022-09-10T17:10:00.751Z,74.42
2022-09-10T17:13:33.991Z,74.66
2022-09-10T17:17:10.933Z,74.91
2022-09-10T17:20:48.483Z,75.22
2022-09-10T17:24:43.578Z,75.37
2022-09-10T17:28:05.552Z,76.33
2022-09-10T17:31:43.470Z,76.51
2022-09-10T17:35:19.405Z,76.78
2022-09-10T17:38:56.342Z,76.84
2022-09-10T17:42:51.491Z,76.83
2022-09-10T17:46:17.911Z,76.76
2022-09-10T17:49:50.953Z,76.80
2022-09-10T17:53:46.283Z,77.17
2022-09-10T17:57:08.039Z,77.55
2022-09-10T18:00:49.888Z,77.52
2022-09-10T18:04:21.712Z,77.36
2022-09-10T18:07:58.400Z,77.23
2022-09-10T18:11:38.864Z,77.13
2022-09-10T18:15:12.097Z,77.06
2022-09-10T18:19:14.302Z,76.93
2022-09-10T18:22:38.202Z,77.38
2022-09-10T18:26:36.729Z,77.81
2022-09-10T18:30:17.913Z,78.00
2022-09-10T18:33:41.311Z,77.84
2022-09-10T18:37:16.475Z,77.71
2022-09-10T18:40:54.222Z,77.50
2022-09-10T18:44:48.818Z,77.52
2022-09-10T18:48:10.415Z,77.56
2022-09-10T18:51:47.823Z,77.82
2022-09-10T18:55:24.154Z,77.97
2022-09-10T18:59:22.603Z,78.60
2022-09-10T19:03:04.137Z,78.82
2022-09-10T19:06:46.812Z,79.39
2022-09-10T19:10:09.907Z,79.75
2022-09-10T19:14:17.388Z,79.63
2022-09-10T19:17:39.825Z,79.48
2022-09-10T19:21:36.318Z,79.51
2022-09-10T19:24:58.303Z,79.64
2022-09-10T19:28:34.855Z,79.80
2022-09-10T19:32:31.261Z,80.02
2022-09-10T19:35:56.511Z,80.13
2022-09-10T19:39:48.618Z,80.37
2022-09-10T19:43:10.683Z,80.66
2022-09-10T19:46:47.455Z,81.29
2022-09-10T19:50:24.176Z,81.87
2022-09-10T19:54:02.097Z,81.54
2022-09-10T19:57:37.853Z,81.36
2022-09-10T20:01:18.751Z,81.60
2022-09-10T20:04:51.367Z,82.11
2022-09-10T20:08:28.386Z,82.09
2022-09-10T20:12:05.820Z,82.26
2022-09-10T20:15:45.431Z,82.79
2022-09-10T20:19:37.550Z,82.54
2022-09-10T20:23:01.330Z,82.50
2022-09-10T20:26:38.495Z,82.84
2022-09-10T20:30:12.774Z,82.82
2022-09-10T20:34:14.154Z,82.52
2022-09-10T20:37:35.584Z,82.50
2022-09-10T20:41:12.485Z,82.52
2022-09-10T20:44:49.438Z,82.57
2022-09-10T20:48:26.880Z,82.76
2022-09-10T20:52:04.559Z,82.96
2022-09-10T20:55:39.526Z,82.99
2022-09-10T20:59:18.001Z,83.08
2022-09-10T21:02:53.818Z,82.99
2022-09-10T21:06:32.746Z,82.74
2022-09-10T21:10:25.601Z,82.67
2022-09-10T21:13:55.756Z,82.76
2022-09-10T21:17:24.174Z,83.10
2022-09-10T21:21:16.165Z,83.20
2022-09-10T21:24:39.396Z,83.51
2022-09-10T21:28:15.567Z,83.74
2022-09-10T21:31:54.767Z,83.77
2022-09-10T21:35:29.451Z,83.81
2022-09-10T21:39:09.809Z,83.75
2022-09-10T21:42:44.004Z,83.52
2022-09-10T21:46:19.847Z,83.63
2022-09-10T21:49:57.016Z,83.72
2022-09-10T21:53:58.587Z,84.03
2022-09-10T21:57:20.533Z,84.21
2022-09-10T22:00:58.382Z,84.43
2022-09-10T22:04:53.015Z,84.37
2022-09-10T22:08:14.906Z,84.30
2022-09-10T22:12:10.582Z,84.33
2022-09-10T22:15:38.685Z,84.33
2022-09-10T22:19:23.358Z,84.64
2022-09-10T22:23:05.397Z,85.11
2022-09-10T22:26:28.223Z,85.00
2022-09-10T22:30:27.090Z,85.26
2022-09-10T22:33:56.173Z,85.54
2022-09-10T22:37:25.594Z,85.53
2022-09-10T22:41:04.619Z,85.47
2022-09-10T22:44:39.031Z,85.51
2022-09-10T22:48:17.357Z,85.57
2022-09-10T22:52:11.802Z,85.82
2022-09-10T22:55:34.804Z,86.17
2022-09-10T22:59:13.733Z,86.27
2022-09-10T23:02:47.871Z,85.94
2022-09-10T23:06:26.473Z,85.76
2022-09-10T23:10:01.341Z,85.65
2022-09-10T23:13:37.895Z,85.43
2022-09-10T23:17:18.450Z,85.51
2022-09-10T23:20:51.062Z,85.81
2022-09-10T23:24:28.357Z,86.02
2022-09-10T23:28:07.270Z,86.11
2022-09-10T23:31:42.830Z,86.28
2022-09-10T23:35:18.567Z,86.37
2022-09-10T23:38:54.697Z,86.65
2022-09-10T23:42:32.943Z,86.43
2022-09-10T23:46:09.561Z,86.35
2022-09-10T23:49:45.238Z,86.57
2022-09-10T23:53:23.432Z,86.55
2022-09-10T23:56:59.047Z,86.51
